首页
METAR-TAF:

METAR-TAF

机场 :

Kimble County Airport

Junction, 得克萨斯州, 美国

纬度: 30-30-39N, 经度: 099-45-59W, 海拔: 527米

当前天气观测

该预报发布于21分钟前的11:00 UTC
风速5节,风向
温度 24°C
湿度 83%
气压 1014 hPa
能見度: 14.5公里
散云层高于1500英尺
多云层高于2100英尺
阴天层高于3300英尺

METAR: KJCT 191100Z AUTO 10005KT 9SM SCT015 BKN021 OVC033 24/21 A2995 RMK AO2 T02390211 $

时间: 06:21 (11:21 UTC)

预报

该预报发布于6小时和1分钟前的05:20 UTC
预报有效从19日的 06点(UTC)到 20日的 06点(UTC)
风速11节,风向东南
能見度: 10公里
散云层高于6000英尺
从 19日的 0700点(UTC)
风速9节,风向东转东南
能見度: 10公里
阴天层高于1500英尺
从 19日的 1700点(UTC)
风速13节,风向,有时为23节阵风
能見度: 10公里
阴天层高于1500英尺
附近有阵雨
从 19日的 2200点(UTC)
风速18节,风向,有时为25节阵风
能見度: 8.0公里
阴天层高于1500英尺
小雨
从 20日的 0500点(UTC)
风速16节,风向,有时为23节阵风
能見度: 8.0公里
阴天层高于700英尺
小雨,

TAF: KJCT 190520Z 1906/2006 14011KT P6SM SCT060 FM190700 11009KT P6SM OVC015 FM191700 09013G23KT P6SM VCSH OVC015 FM192200 09018G25KT 5SM -RA OVC015 FM200500 09016G23KT 5SM -RA OVC007

超过4000个机场的气象观测和天气预报(METAR&TAF报告)。

可查询的气象台以黄色和红色小点在地图上表示。

将鼠标移到小点上方,可查看气象台名称。

然后点击查看天气观测和预报。

如需切换地图:点击带黑十字的绿色按钮放大地图;点击带横线的绿色按钮缩小地图;或者点击绿色箭头查看邻近地区的地图。


METAR-TAF: